sensor_id;sensor_type;location;lat;lon;timestamp;P1;durP1;ratioP1;P2;durP2;ratioP2
26082;SDS011;13848;49.018;12.078;2023-04-25T00:00:05;2.40;;;1.77;;
26082;SDS011;13848;49.018;12.078;2023-04-25T00:02:33;4.38;;;1.67;;
26082;SDS011;13848;49.018;12.078;2023-04-25T00:08:02;2.42;;;1.70;;
26082;SDS011;13848;49.018;12.078;2023-04-25T00:10:29;2.28;;;1.50;;
26082;SDS011;13848;49.018;12.078;2023-04-25T00:12:55;1.88;;;1.60;;
26082;SDS011;13848;49.018;12.078;2023-04-25T00:15:21;2.58;;;1.90;;
26082;SDS011;13848;49.018;12.078;2023-04-25T00:17:48;1.65;;;1.48;;
26082;SDS011;13848;49.018;12.078;2023-04-25T00:20:14;1.65;;;1.55;;
26082;SDS011;13848;49.018;12.078;2023-04-25T00:22:40;1.85;;;1.70;;
26082;SDS011;13848;49.018;12.078;2023-04-25T00:25:06;1.88;;;1.63;;
26082;SDS011;13848;49.018;12.078;2023-04-25T00:27:38;2.85;;;1.90;;
26082;SDS011;13848;49.018;12.078;2023-04-25T00:30:06;2.78;;;1.85;;
26082;SDS011;13848;49.018;12.078;2023-04-25T00:32:33;1.98;;;1.65;;
26082;SDS011;13848;49.018;12.078;2023-04-25T00:35:00;2.17;;;1.88;;
26082;SDS011;13848;49.018;12.078;2023-04-25T00:37:26;3.15;;;1.83;;
26082;SDS011;13848;49.018;12.078;2023-04-25T00:39:52;2.75;;;1.70;;
26082;SDS011;13848;49.018;12.078;2023-04-25T00:42:18;3.95;;;2.20;;
26082;SDS011;13848;49.018;12.078;2023-04-25T00:44:45;2.03;;;1.73;;
26082;SDS011;13848;49.018;12.078;2023-04-25T00:47:11;1.75;;;1.50;;
26082;SDS011;13848;49.018;12.078;2023-04-25T00:49:38;3.17;;;1.90;;
26082;SDS011;13848;49.018;12.078;2023-04-25T00:52:05;2.17;;;1.80;;
26082;SDS011;13848;49.018;12.078;2023-04-25T00:54:31;6.30;;;2.17;;
26082;SDS011;13848;49.018;12.078;2023-04-25T00:56:57;2.40;;;1.88;;
26082;SDS011;13848;49.018;12.078;2023-04-25T00:59:24;2.42;;;1.90;;
26082;SDS011;13848;49.018;12.078;2023-04-25T01:01:51;2.15;;;1.80;;
26082;SDS011;13848;49.018;12.078;2023-04-25T01:04:17;5.25;;;1.90;;
26082;SDS011;13848;49.018;12.078;2023-04-25T01:06:43;2.72;;;2.25;;
26082;SDS011;13848;49.018;12.078;2023-04-25T01:09:10;1.80;;;1.65;;
26082;SDS011;13848;49.018;12.078;2023-04-25T01:11:37;4.90;;;2.13;;
26082;SDS011;13848;49.018;12.078;2023-04-25T01:14:03;3.42;;;2.08;;
26082;SDS011;13848;49.018;12.078;2023-04-25T01:16:29;2.28;;;1.88;;
26082;SDS011;13848;49.018;12.078;2023-04-25T01:18:55;4.22;;;2.25;;
26082;SDS011;13848;49.018;12.078;2023-04-25T01:21:23;3.05;;;2.00;;
26082;SDS011;13848;49.018;12.078;2023-04-25T01:23:49;3.60;;;2.53;;
26082;SDS011;13848;49.018;12.078;2023-04-25T01:26:15;4.65;;;3.00;;
26082;SDS011;13848;49.018;12.078;2023-04-25T01:28:42;3.90;;;2.60;;
26082;SDS011;13848;49.018;12.078;2023-04-25T01:31:08;3.50;;;2.33;;
26082;SDS011;13848;49.018;12.078;2023-04-25T01:33:34;5.00;;;3.03;;
26082;SDS011;13848;49.018;12.078;2023-04-25T01:36:00;5.18;;;2.30;;
26082;SDS011;13848;49.018;12.078;2023-04-25T01:38:27;3.10;;;2.15;;
26082;SDS011;13848;49.018;12.078;2023-04-25T01:40:53;5.38;;;2.45;;
26082;SDS011;13848;49.018;12.078;2023-04-25T01:43:20;3.25;;;2.60;;
26082;SDS011;13848;49.018;12.078;2023-04-25T01:45:46;2.80;;;2.10;;
26082;SDS011;13848;49.018;12.078;2023-04-25T01:48:14;6.85;;;2.55;;
26082;SDS011;13848;49.018;12.078;2023-04-25T01:50:40;3.70;;;2.30;;
26082;SDS011;13848;49.018;12.078;2023-04-25T01:53:06;4.32;;;2.70;;
26082;SDS011;13848;49.018;12.078;2023-04-25T01:55:36;3.00;;;2.40;;
26082;SDS011;13848;49.018;12.078;2023-04-25T01:58:02;3.78;;;2.35;;
26082;SDS011;13848;49.018;12.078;2023-04-25T02:00:29;5.35;;;2.47;;
26082;SDS011;13848;49.018;12.078;2023-04-25T02:02:57;3.55;;;2.47;;
26082;SDS011;13848;49.018;12.078;2023-04-25T02:05:23;3.78;;;2.40;;
26082;SDS011;13848;49.018;12.078;2023-04-25T02:07:49;4.35;;;2.72;;
26082;SDS011;13848;49.018;12.078;2023-04-25T02:10:15;2.30;;;2.10;;
26082;SDS011;13848;49.018;12.078;2023-04-25T02:12:42;3.55;;;2.33;;
26082;SDS011;13848;49.018;12.078;2023-04-25T02:15:09;3.45;;;2.30;;
26082;SDS011;13848;49.018;12.078;2023-04-25T02:17:35;3.65;;;2.50;;
26082;SDS011;13848;49.018;12.078;2023-04-25T02:20:01;3.53;;;2.38;;
26082;SDS011;13848;49.018;12.078;2023-04-25T02:22:27;4.32;;;2.33;;
26082;SDS011;13848;49.018;12.078;2023-04-25T02:24:53;3.17;;;2.33;;
26082;SDS011;13848;49.018;12.078;2023-04-25T02:27:19;3.38;;;2.35;;
26082;SDS011;13848;49.018;12.078;2023-04-25T02:29:46;4.45;;;2.42;;
26082;SDS011;13848;49.018;12.078;2023-04-25T02:32:12;3.83;;;2.35;;
26082;SDS011;13848;49.018;12.078;2023-04-25T02:34:38;3.08;;;2.40;;
26082;SDS011;13848;49.018;12.078;2023-04-25T02:37:04;3.88;;;2.60;;
26082;SDS011;13848;49.018;12.078;2023-04-25T02:39:30;3.72;;;2.33;;
26082;SDS011;13848;49.018;12.078;2023-04-25T02:41:56;3.30;;;2.33;;
26082;SDS011;13848;49.018;12.078;2023-04-25T02:44:22;3.30;;;2.50;;
26082;SDS011;13848;49.018;12.078;2023-04-25T02:46:49;3.75;;;2.28;;
26082;SDS011;13848;49.018;12.078;2023-04-25T02:49:15;2.90;;;2.35;;
26082;SDS011;13848;49.018;12.078;2023-04-25T02:51:41;3.05;;;2.28;;
26082;SDS011;13848;49.018;12.078;2023-04-25T02:54:07;3.03;;;2.50;;
26082;SDS011;13848;49.018;12.078;2023-04-25T02:56:33;5.85;;;2.70;;
26082;SDS011;13848;49.018;12.078;2023-04-25T02:58:59;4.28;;;2.72;;
26082;SDS011;13848;49.018;12.078;2023-04-25T03:01:25;3.47;;;2.50;;
26082;SDS011;13848;49.018;12.078;2023-04-25T03:03:52;3.42;;;2.38;;
26082;SDS011;13848;49.018;12.078;2023-04-25T03:06:18;4.10;;;2.80;;
26082;SDS011;13848;49.018;12.078;2023-04-25T03:08:44;3.63;;;2.70;;
26082;SDS011;13848;49.018;12.078;2023-04-25T03:11:10;5.63;;;2.83;;
26082;SDS011;13848;49.018;12.078;2023-04-25T03:13:36;5.60;;;2.70;;
26082;SDS011;13848;49.018;12.078;2023-04-25T03:16:01;3.15;;;2.47;;
26082;SDS011;13848;49.018;12.078;2023-04-25T03:18:27;4.25;;;2.40;;
26082;SDS011;13848;49.018;12.078;2023-04-25T03:20:55;3.38;;;2.42;;
26082;SDS011;13848;49.018;12.078;2023-04-25T03:23:21;2.70;;;2.50;;
26082;SDS011;13848;49.018;12.078;2023-04-25T03:25:47;4.85;;;3.00;;
26082;SDS011;13848;49.018;12.078;2023-04-25T03:28:13;3.75;;;2.80;;
26082;SDS011;13848;49.018;12.078;2023-04-25T03:30:39;3.13;;;2.30;;
26082;SDS011;13848;49.018;12.078;2023-04-25T03:33:05;4.20;;;2.92;;
26082;SDS011;13848;49.018;12.078;2023-04-25T03:35:31;3.85;;;2.50;;
26082;SDS011;13848;49.018;12.078;2023-04-25T03:37:58;4.18;;;2.60;;
26082;SDS011;13848;49.018;12.078;2023-04-25T03:40:24;4.07;;;2.50;;
26082;SDS011;13848;49.018;12.078;2023-04-25T03:42:50;3.03;;;2.58;;
26082;SDS011;13848;49.018;12.078;2023-04-25T03:45:16;3.42;;;2.25;;
26082;SDS011;13848;49.018;12.078;2023-04-25T03:47:42;3.08;;;2.28;;
26082;SDS011;13848;49.018;12.078;2023-04-25T03:50:08;5.57;;;2.63;;
26082;SDS011;13848;49.018;12.078;2023-04-25T03:52:34;4.60;;;2.67;;
26082;SDS011;13848;49.018;12.078;2023-04-25T03:55:02;3.50;;;2.22;;
26082;SDS011;13848;49.018;12.078;2023-04-25T03:57:28;3.15;;;2.42;;
26082;SDS011;13848;49.018;12.078;2023-04-25T03:59:54;3.75;;;2.40;;
26082;SDS011;13848;49.018;12.078;2023-04-25T04:02:20;3.97;;;2.50;;
26082;SDS011;13848;49.018;12.078;2023-04-25T04:04:46;2.92;;;2.30;;
26082;SDS011;13848;49.018;12.078;2023-04-25T04:07:12;2.42;;;2.22;;
26082;SDS011;13848;49.018;12.078;2023-04-25T04:09:38;4.95;;;2.67;;
26082;SDS011;13848;49.018;12.078;2023-04-25T04:12:05;2.80;;;2.15;;
26082;SDS011;13848;49.018;12.078;2023-04-25T04:14:31;3.92;;;2.80;;
26082;SDS011;13848;49.018;12.078;2023-04-25T04:16:57;3.30;;;2.40;;
26082;SDS011;13848;49.018;12.078;2023-04-25T04:19:23;3.60;;;2.53;;
26082;SDS011;13848;49.018;12.078;2023-04-25T04:21:49;2.85;;;2.40;;
26082;SDS011;13848;49.018;12.078;2023-04-25T04:24:15;3.55;;;2.70;;
26082;SDS011;13848;49.018;12.078;2023-04-25T04:26:41;3.08;;;2.47;;
26082;SDS011;13848;49.018;12.078;2023-04-25T04:29:08;2.70;;;2.25;;
26082;SDS011;13848;49.018;12.078;2023-04-25T04:31:34;4.13;;;2.38;;
26082;SDS011;13848;49.018;12.078;2023-04-25T04:34:00;4.38;;;2.53;;
26082;SDS011;13848;49.018;12.078;2023-04-25T04:36:26;4.90;;;2.50;;
26082;SDS011;13848;49.018;12.078;2023-04-25T04:38:53;3.42;;;2.47;;
26082;SDS011;13848;49.018;12.078;2023-04-25T04:41:19;3.42;;;2.35;;
26082;SDS011;13848;49.018;12.078;2023-04-25T04:43:45;3.50;;;2.38;;
26082;SDS011;13848;49.018;12.078;2023-04-25T04:46:12;3.65;;;2.30;;
26082;SDS011;13848;49.018;12.078;2023-04-25T04:48:38;3.20;;;2.33;;
26082;SDS011;13848;49.018;12.078;2023-04-25T04:51:04;3.65;;;2.20;;
26082;SDS011;13848;49.018;12.078;2023-04-25T04:53:30;2.80;;;2.50;;
26082;SDS011;13848;49.018;12.078;2023-04-25T04:55:56;4.47;;;2.60;;
26082;SDS011;13848;49.018;12.078;2023-04-25T04:58:22;3.60;;;2.47;;
26082;SDS011;13848;49.018;12.078;2023-04-25T05:00:48;5.35;;;2.25;;
26082;SDS011;13848;49.018;12.078;2023-04-25T05:03:15;4.95;;;2.70;;
26082;SDS011;13848;49.018;12.078;2023-04-25T05:05:41;5.35;;;2.63;;
26082;SDS011;13848;49.018;12.078;2023-04-25T05:08:07;4.07;;;2.83;;
26082;SDS011;13848;49.018;12.078;2023-04-25T05:10:33;5.25;;;3.08;;
26082;SDS011;13848;49.018;12.078;2023-04-25T05:12:59;5.10;;;2.95;;
26082;SDS011;13848;49.018;12.078;2023-04-25T05:15:25;4.00;;;3.05;;
26082;SDS011;13848;49.018;12.078;2023-04-25T05:17:51;5.10;;;2.83;;
26082;SDS011;13848;49.018;12.078;2023-04-25T05:20:18;4.15;;;3.00;;
26082;SDS011;13848;49.018;12.078;2023-04-25T05:22:44;3.55;;;2.90;;
26082;SDS011;13848;49.018;12.078;2023-04-25T05:25:10;4.15;;;2.78;;
26082;SDS011;13848;49.018;12.078;2023-04-25T05:27:36;3.80;;;3.00;;
26082;SDS011;13848;49.018;12.078;2023-04-25T05:30:02;5.70;;;3.10;;
26082;SDS011;13848;49.018;12.078;2023-04-25T05:32:29;7.53;;;3.20;;
26082;SDS011;13848;49.018;12.078;2023-04-25T05:34:55;4.70;;;3.45;;
26082;SDS011;13848;49.018;12.078;2023-04-25T05:37:22;6.35;;;3.20;;
26082;SDS011;13848;49.018;12.078;2023-04-25T05:39:48;4.57;;;3.33;;
26082;SDS011;13848;49.018;12.078;2023-04-25T05:42:14;5.88;;;3.08;;
26082;SDS011;13848;49.018;12.078;2023-04-25T05:44:40;7.25;;;3.65;;
26082;SDS011;13848;49.018;12.078;2023-04-25T05:47:06;4.72;;;2.90;;
26082;SDS011;13848;49.018;12.078;2023-04-25T05:49:33;6.43;;;2.92;;
26082;SDS011;13848;49.018;12.078;2023-04-25T05:51:59;6.90;;;3.20;;
26082;SDS011;13848;49.018;12.078;2023-04-25T05:54:26;4.25;;;2.72;;
26082;SDS011;13848;49.018;12.078;2023-04-25T05:56:52;4.60;;;2.92;;
26082;SDS011;13848;49.018;12.078;2023-04-25T05:59:18;5.97;;;3.58;;
26082;SDS011;13848;49.018;12.078;2023-04-25T06:01:44;6.28;;;2.80;;
26082;SDS011;13848;49.018;12.078;2023-04-25T06:04:10;4.22;;;2.60;;
26082;SDS011;13848;49.018;12.078;2023-04-25T06:06:36;3.78;;;2.45;;
26082;SDS011;13848;49.018;12.078;2023-04-25T06:09:02;3.08;;;2.40;;
26082;SDS011;13848;49.018;12.078;2023-04-25T06:11:29;3.47;;;2.10;;
26082;SDS011;13848;49.018;12.078;2023-04-25T06:13:55;3.15;;;2.45;;
26082;SDS011;13848;49.018;12.078;2023-04-25T06:16:21;4.40;;;2.25;;
26082;SDS011;13848;49.018;12.078;2023-04-25T06:18:47;4.07;;;2.38;;
26082;SDS011;13848;49.018;12.078;2023-04-25T06:21:13;3.70;;;2.20;;
26082;SDS011;13848;49.018;12.078;2023-04-25T06:23:39;3.75;;;2.30;;
26082;SDS011;13848;49.018;12.078;2023-04-25T06:26:05;3.35;;;2.13;;
26082;SDS011;13848;49.018;12.078;2023-04-25T06:28:32;4.45;;;2.17;;
26082;SDS011;13848;49.018;12.078;2023-04-25T06:30:58;3.88;;;2.20;;
26082;SDS011;13848;49.018;12.078;2023-04-25T06:33:24;4.45;;;2.40;;
26082;SDS011;13848;49.018;12.078;2023-04-25T06:35:50;4.00;;;2.20;;
26082;SDS011;13848;49.018;12.078;2023-04-25T06:38:16;5.10;;;2.00;;
26082;SDS011;13848;49.018;12.078;2023-04-25T06:40:42;2.60;;;2.17;;
26082;SDS011;13848;49.018;12.078;2023-04-25T06:43:08;2.65;;;1.90;;
26082;SDS011;13848;49.018;12.078;2023-04-25T06:45:35;4.15;;;2.13;;
26082;SDS011;13848;49.018;12.078;2023-04-25T06:48:01;3.38;;;2.22;;
26082;SDS011;13848;49.018;12.078;2023-04-25T06:50:27;3.60;;;2.10;;
26082;SDS011;13848;49.018;12.078;2023-04-25T06:52:53;3.85;;;2.20;;
26082;SDS011;13848;49.018;12.078;2023-04-25T06:55:19;2.15;;;1.95;;
26082;SDS011;13848;49.018;12.078;2023-04-25T06:57:45;3.33;;;1.90;;
26082;SDS011;13848;49.018;12.078;2023-04-25T07:00:11;3.03;;;2.08;;
26082;SDS011;13848;49.018;12.078;2023-04-25T07:02:39;5.50;;;2.03;;
26082;SDS011;13848;49.018;12.078;2023-04-25T07:05:05;3.20;;;2.10;;
26082;SDS011;13848;49.018;12.078;2023-04-25T07:07:31;3.47;;;2.17;;
26082;SDS011;13848;49.018;12.078;2023-04-25T07:09:57;4.22;;;1.88;;
26082;SDS011;13848;49.018;12.078;2023-04-25T07:12:23;2.65;;;1.80;;
26082;SDS011;13848;49.018;12.078;2023-04-25T07:14:49;4.88;;;2.25;;
26082;SDS011;13848;49.018;12.078;2023-04-25T07:17:15;3.38;;;1.92;;
26082;SDS011;13848;49.018;12.078;2023-04-25T07:19:42;5.53;;;2.50;;
26082;SDS011;13848;49.018;12.078;2023-04-25T07:22:08;2.90;;;2.10;;
26082;SDS011;13848;49.018;12.078;2023-04-25T07:24:34;3.20;;;2.38;;
26082;SDS011;13848;49.018;12.078;2023-04-25T07:27:01;2.92;;;2.22;;
26082;SDS011;13848;49.018;12.078;2023-04-25T07:29:27;4.68;;;2.20;;
26082;SDS011;13848;49.018;12.078;2023-04-25T07:31:53;3.30;;;2.00;;
26082;SDS011;13848;49.018;12.078;2023-04-25T07:34:19;3.75;;;2.20;;
26082;SDS011;13848;49.018;12.078;2023-04-25T07:36:46;4.75;;;2.20;;
26082;SDS011;13848;49.018;12.078;2023-04-25T07:39:12;4.13;;;1.85;;
26082;SDS011;13848;49.018;12.078;2023-04-25T07:41:38;2.75;;;2.17;;
26082;SDS011;13848;49.018;12.078;2023-04-25T07:44:04;4.15;;;2.15;;
26082;SDS011;13848;49.018;12.078;2023-04-25T07:46:30;4.60;;;2.38;;
26082;SDS011;13848;49.018;12.078;2023-04-25T07:48:56;4.13;;;2.70;;
26082;SDS011;13848;49.018;12.078;2023-04-25T07:51:22;4.85;;;2.42;;
26082;SDS011;13848;49.018;12.078;2023-04-25T07:53:49;2.42;;;2.20;;
26082;SDS011;13848;49.018;12.078;2023-04-25T07:56:15;2.95;;;1.85;;
26082;SDS011;13848;49.018;12.078;2023-04-25T07:58:41;2.65;;;2.00;;
26082;SDS011;13848;49.018;12.078;2023-04-25T08:01:07;4.35;;;2.35;;
26082;SDS011;13848;49.018;12.078;2023-04-25T08:03:33;2.33;;;1.83;;
26082;SDS011;13848;49.018;12.078;2023-04-25T08:05:59;4.72;;;2.13;;
26082;SDS011;13848;49.018;12.078;2023-04-25T08:08:25;2.30;;;2.10;;
26082;SDS011;13848;49.018;12.078;2023-04-25T08:10:52;1.98;;;1.80;;
26082;SDS011;13848;49.018;12.078;2023-04-25T08:13:18;3.22;;;2.20;;
26082;SDS011;13848;49.018;12.078;2023-04-25T08:15:44;2.20;;;1.92;;
26082;SDS011;13848;49.018;12.078;2023-04-25T08:18:10;3.50;;;2.00;;
26082;SDS011;13848;49.018;12.078;2023-04-25T08:20:36;2.85;;;1.98;;
26082;SDS011;13848;49.018;12.078;2023-04-25T08:23:02;3.17;;;1.67;;
26082;SDS011;13848;49.018;12.078;2023-04-25T08:25:28;3.55;;;1.88;;
26082;SDS011;13848;49.018;12.078;2023-04-25T08:27:55;2.70;;;1.75;;
26082;SDS011;13848;49.018;12.078;2023-04-25T08:30:21;4.47;;;1.75;;
26082;SDS011;13848;49.018;12.078;2023-04-25T08:32:47;4.05;;;1.85;;
26082;SDS011;13848;49.018;12.078;2023-04-25T08:35:13;3.47;;;2.00;;
26082;SDS011;13848;49.018;12.078;2023-04-25T08:37:39;2.33;;;2.00;;
26082;SDS011;13848;49.018;12.078;2023-04-25T08:40:05;2.13;;;1.75;;
26082;SDS011;13848;49.018;12.078;2023-04-25T08:42:36;2.33;;;1.83;;
26082;SDS011;13848;49.018;12.078;2023-04-25T08:45:05;2.20;;;1.70;;
26082;SDS011;13848;49.018;12.078;2023-04-25T08:47:32;2.58;;;1.75;;
26082;SDS011;13848;49.018;12.078;2023-04-25T08:49:59;2.92;;;1.70;;
26082;SDS011;13848;49.018;12.078;2023-04-25T08:52:27;3.78;;;1.70;;
26082;SDS011;13848;49.018;12.078;2023-04-25T08:54:55;2.33;;;1.67;;
26082;SDS011;13848;49.018;12.078;2023-04-25T08:57:23;2.50;;;1.70;;
26082;SDS011;13848;49.018;12.078;2023-04-25T08:59:49;1.88;;;1.67;;
26082;SDS011;13848;49.018;12.078;2023-04-25T09:02:18;2.08;;;1.75;;
26082;SDS011;13848;49.018;12.078;2023-04-25T09:04:44;2.45;;;1.88;;
26082;SDS011;13848;49.018;12.078;2023-04-25T09:07:10;2.13;;;1.77;;
26082;SDS011;13848;49.018;12.078;2023-04-25T09:09:37;40.85;;;2.42;;
26082;SDS011;13848;49.018;12.078;2023-04-25T09:12:03;2.95;;;1.90;;
26082;SDS011;13848;49.018;12.078;2023-04-25T09:14:30;2.00;;;1.60;;
26082;SDS011;13848;49.018;12.078;2023-04-25T09:16:59;2.90;;;1.73;;
26082;SDS011;13848;49.018;12.078;2023-04-25T09:19:29;2.22;;;1.70;;
26082;SDS011;13848;49.018;12.078;2023-04-25T09:21:56;3.05;;;1.90;;
26082;SDS011;13848;49.018;12.078;2023-04-25T09:24:33;1.70;;;1.60;;
26082;SDS011;13848;49.018;12.078;2023-04-25T09:27:02;3.13;;;1.80;;
26082;SDS011;13848;49.018;12.078;2023-04-25T09:29:30;2.08;;;1.88;;
26082;SDS011;13848;49.018;12.078;2023-04-25T09:32:13;2.42;;;2.03;;
26082;SDS011;13848;49.018;12.078;2023-04-25T09:34:43;3.13;;;2.00;;
26082;SDS011;13848;49.018;12.078;2023-04-25T09:37:11;3.03;;;2.15;;
26082;SDS011;13848;49.018;12.078;2023-04-25T09:39:37;3.00;;;2.13;;
26082;SDS011;13848;49.018;12.078;2023-04-25T09:42:03;2.30;;;1.95;;
26082;SDS011;13848;49.018;12.078;2023-04-25T09:44:30;1.88;;;1.30;;
26082;SDS011;13848;49.018;12.078;2023-04-25T09:46:56;1.33;;;1.20;;
26082;SDS011;13848;49.018;12.078;2023-04-25T09:49:22;3.85;;;1.50;;
26082;SDS011;13848;49.018;12.078;2023-04-25T09:51:55;2.30;;;1.70;;
26082;SDS011;13848;49.018;12.078;2023-04-25T09:54:21;1.90;;;1.70;;
26082;SDS011;13848;49.018;12.078;2023-04-25T09:56:47;3.75;;;1.98;;
26082;SDS011;13848;49.018;12.078;2023-04-25T09:59:16;2.75;;;1.90;;
26082;SDS011;13848;49.018;12.078;2023-04-25T10:01:45;3.50;;;1.83;;
26082;SDS011;13848;49.018;12.078;2023-04-25T10:04:11;2.35;;;1.98;;
26082;SDS011;13848;49.018;12.078;2023-04-25T10:06:38;2.10;;;1.73;;
26082;SDS011;13848;49.018;12.078;2023-04-25T10:09:07;2.70;;;1.70;;
26082;SDS011;13848;49.018;12.078;2023-04-25T10:11:33;4.03;;;1.70;;
26082;SDS011;13848;49.018;12.078;2023-04-25T10:14:00;2.47;;;1.50;;
26082;SDS011;13848;49.018;12.078;2023-04-25T10:16:26;1.75;;;1.42;;
26082;SDS011;13848;49.018;12.078;2023-04-25T10:18:54;1.40;;;1.30;;
26082;SDS011;13848;49.018;12.078;2023-04-25T10:21:21;2.60;;;1.50;;
26082;SDS011;13848;49.018;12.078;2023-04-25T10:26:15;2.85;;;1.60;;
26082;SDS011;13848;49.018;12.078;2023-04-25T10:28:57;2.63;;;1.55;;
26082;SDS011;13848;49.018;12.078;2023-04-25T10:31:24;2.60;;;2.35;;
26082;SDS011;13848;49.018;12.078;2023-04-25T10:33:50;2.95;;;2.60;;
26082;SDS011;13848;49.018;12.078;2023-04-25T10:36:17;2.67;;;2.25;;
26082;SDS011;13848;49.018;12.078;2023-04-25T10:38:44;5.00;;;2.42;;
26082;SDS011;13848;49.018;12.078;2023-04-25T10:41:11;3.35;;;2.50;;
26082;SDS011;13848;49.018;12.078;2023-04-25T10:43:40;3.40;;;2.58;;
26082;SDS011;13848;49.018;12.078;2023-04-25T10:46:16;5.20;;;3.15;;
26082;SDS011;13848;49.018;12.078;2023-04-25T10:48:47;4.95;;;2.80;;
26082;SDS011;13848;49.018;12.078;2023-04-25T10:51:19;4.20;;;2.85;;
26082;SDS011;13848;49.018;12.078;2023-04-25T10:53:46;4.10;;;3.00;;
26082;SDS011;13848;49.018;12.078;2023-04-25T10:56:22;4.97;;;3.60;;
26082;SDS011;13848;49.018;12.078;2023-04-25T10:58:51;3.20;;;2.53;;
26082;SDS011;13848;49.018;12.078;2023-04-25T11:01:28;3.10;;;2.22;;
26082;SDS011;13848;49.018;12.078;2023-04-25T11:04:01;2.53;;;1.90;;
26082;SDS011;13848;49.018;12.078;2023-04-25T11:06:29;3.25;;;2.00;;
26082;SDS011;13848;49.018;12.078;2023-04-25T11:09:03;2.15;;;1.67;;
26082;SDS011;13848;49.018;12.078;2023-04-25T11:11:36;2.78;;;1.70;;
26082;SDS011;13848;49.018;12.078;2023-04-25T11:14:04;1.35;;;1.20;;
26082;SDS011;13848;49.018;12.078;2023-04-25T11:16:30;1.80;;;1.40;;
26082;SDS011;13848;49.018;12.078;2023-04-25T11:18:56;2.75;;;1.27;;
26082;SDS011;13848;49.018;12.078;2023-04-25T11:21:23;1.58;;;1.30;;
26082;SDS011;13848;49.018;12.078;2023-04-25T11:23:50;1.33;;;1.20;;
26082;SDS011;13848;49.018;12.078;2023-04-25T11:26:18;1.63;;;1.10;;
26082;SDS011;13848;49.018;12.078;2023-04-25T11:28:44;1.77;;;1.33;;
26082;SDS011;13848;49.018;12.078;2023-04-25T11:31:12;3.85;;;1.05;;
26082;SDS011;13848;49.018;12.078;2023-04-25T11:33:38;2.10;;;1.75;;
26082;SDS011;13848;49.018;12.078;2023-04-25T11:36:04;1.40;;;1.20;;
26082;SDS011;13848;49.018;12.078;2023-04-25T11:38:30;1.60;;;1.40;;
26082;SDS011;13848;49.018;12.078;2023-04-25T11:40:56;3.50;;;1.42;;
26082;SDS011;13848;49.018;12.078;2023-04-25T11:43:22;1.77;;;1.58;;
26082;SDS011;13848;49.018;12.078;2023-04-25T11:45:48;3.72;;;1.52;;
26082;SDS011;13848;49.018;12.078;2023-04-25T11:48:16;1.58;;;1.30;;
26082;SDS011;13848;49.018;12.078;2023-04-25T11:50:42;4.32;;;1.40;;
26082;SDS011;13848;49.018;12.078;2023-04-25T11:53:08;2.72;;;1.73;;
26082;SDS011;13848;49.018;12.078;2023-04-25T11:55:34;3.25;;;1.60;;
26082;SDS011;13848;49.018;12.078;2023-04-25T11:58:00;2.55;;;1.65;;
26082;SDS011;13848;49.018;12.078;2023-04-25T12:00:26;2.50;;;1.45;;
26082;SDS011;13848;49.018;12.078;2023-04-25T12:02:53;2.15;;;1.33;;
26082;SDS011;13848;49.018;12.078;2023-04-25T12:05:25;7.95;;;1.58;;
26082;SDS011;13848;49.018;12.078;2023-04-25T12:07:52;2.05;;;1.60;;
26082;SDS011;13848;49.018;12.078;2023-04-25T12:10:18;2.22;;;1.40;;
26082;SDS011;13848;49.018;12.078;2023-04-25T12:12:45;1.70;;;1.60;;
26082;SDS011;13848;49.018;12.078;2023-04-25T12:15:12;2.35;;;1.25;;
26082;SDS011;13848;49.018;12.078;2023-04-25T12:17:39;1.63;;;1.30;;
26082;SDS011;13848;49.018;12.078;2023-04-25T12:20:07;2.72;;;1.45;;
26082;SDS011;13848;49.018;12.078;2023-04-25T12:22:35;2.10;;;1.60;;
26082;SDS011;13848;49.018;12.078;2023-04-25T12:25:01;3.65;;;1.98;;
26082;SDS011;13848;49.018;12.078;2023-04-25T12:27:27;2.88;;;1.95;;
26082;SDS011;13848;49.018;12.078;2023-04-25T12:29:54;1.70;;;1.27;;
26082;SDS011;13848;49.018;12.078;2023-04-25T12:32:21;2.15;;;1.50;;
26082;SDS011;13848;49.018;12.078;2023-04-25T12:34:47;3.97;;;1.30;;
26082;SDS011;13848;49.018;12.078;2023-04-25T12:37:13;1.73;;;1.35;;
26082;SDS011;13848;49.018;12.078;2023-04-25T12:39:40;3.08;;;1.83;;
26082;SDS011;13848;49.018;12.078;2023-04-25T12:42:06;1.45;;;1.35;;
26082;SDS011;13848;49.018;12.078;2023-04-25T12:44:32;2.63;;;1.45;;
26082;SDS011;13848;49.018;12.078;2023-04-25T12:46:58;2.42;;;1.38;;
26082;SDS011;13848;49.018;12.078;2023-04-25T12:49:24;3.42;;;2.00;;
26082;SDS011;13848;49.018;12.078;2023-04-25T12:51:50;1.65;;;1.20;;
26082;SDS011;13848;49.018;12.078;2023-04-25T12:54:16;2.92;;;1.88;;
26082;SDS011;13848;49.018;12.078;2023-04-25T12:56:44;3.28;;;2.50;;
26082;SDS011;13848;49.018;12.078;2023-04-25T12:59:10;3.45;;;1.70;;
26082;SDS011;13848;49.018;12.078;2023-04-25T13:01:36;6.43;;;2.20;;
26082;SDS011;13848;49.018;12.078;2023-04-25T13:04:01;3.90;;;1.70;;
26082;SDS011;13848;49.018;12.078;2023-04-25T13:06:28;2.92;;;2.03;;
26082;SDS011;13848;49.018;12.078;2023-04-25T13:08:53;3.47;;;1.52;;
26082;SDS011;13848;49.018;12.078;2023-04-25T13:11:19;2.33;;;1.70;;
26082;SDS011;13848;49.018;12.078;2023-04-25T13:13:47;1.60;;;1.50;;
26082;SDS011;13848;49.018;12.078;2023-04-25T13:16:13;2.38;;;1.50;;
26082;SDS011;13848;49.018;12.078;2023-04-25T13:18:39;2.95;;;1.55;;
26082;SDS011;13848;49.018;12.078;2023-04-25T13:21:05;1.40;;;1.15;;
26082;SDS011;13848;49.018;12.078;2023-04-25T13:23:32;3.05;;;1.30;;
26082;SDS011;13848;49.018;12.078;2023-04-25T13:25:57;2.88;;;1.40;;
26082;SDS011;13848;49.018;12.078;2023-04-25T13:28:23;1.90;;;1.50;;
26082;SDS011;13848;49.018;12.078;2023-04-25T13:30:51;2.65;;;1.65;;
26082;SDS011;13848;49.018;12.078;2023-04-25T13:33:18;2.08;;;1.40;;
26082;SDS011;13848;49.018;12.078;2023-04-25T13:35:44;2.78;;;1.92;;
26082;SDS011;13848;49.018;12.078;2023-04-25T13:38:10;3.08;;;1.70;;
26082;SDS011;13848;49.018;12.078;2023-04-25T13:40:36;3.38;;;1.80;;
26082;SDS011;13848;49.018;12.078;2023-04-25T13:43:02;2.15;;;1.85;;
26082;SDS011;13848;49.018;12.078;2023-04-25T13:45:28;3.22;;;1.90;;
26082;SDS011;13848;49.018;12.078;2023-04-25T13:47:55;1.67;;;1.48;;
26082;SDS011;13848;49.018;12.078;2023-04-25T13:50:21;3.00;;;1.80;;
26082;SDS011;13848;49.018;12.078;2023-04-25T13:52:47;3.05;;;1.75;;
26082;SDS011;13848;49.018;12.078;2023-04-25T13:55:13;3.45;;;2.22;;
26082;SDS011;13848;49.018;12.078;2023-04-25T13:57:39;4.53;;;2.42;;
26082;SDS011;13848;49.018;12.078;2023-04-25T14:00:05;2.67;;;1.75;;
26082;SDS011;13848;49.018;12.078;2023-04-25T14:02:32;4.40;;;2.03;;
26082;SDS011;13848;49.018;12.078;2023-04-25T14:05:00;2.90;;;1.63;;
26082;SDS011;13848;49.018;12.078;2023-04-25T14:07:26;2.92;;;1.90;;
26082;SDS011;13848;49.018;12.078;2023-04-25T14:09:52;7.43;;;1.65;;
26082;SDS011;13848;49.018;12.078;2023-04-25T14:12:18;4.22;;;1.60;;
26082;SDS011;13848;49.018;12.078;2023-04-25T14:14:43;2.90;;;1.67;;
26082;SDS011;13848;49.018;12.078;2023-04-25T14:17:09;4.80;;;1.30;;
26082;SDS011;13848;49.018;12.078;2023-04-25T14:19:36;3.13;;;1.40;;
26082;SDS011;13848;49.018;12.078;2023-04-25T14:22:03;2.17;;;1.13;;
26082;SDS011;13848;49.018;12.078;2023-04-25T14:24:29;3.05;;;1.75;;
26082;SDS011;13848;49.018;12.078;2023-04-25T14:26:55;2.53;;;1.40;;
26082;SDS011;13848;49.018;12.078;2023-04-25T14:29:21;2.95;;;1.52;;
26082;SDS011;13848;49.018;12.078;2023-04-25T14:31:47;2.58;;;1.77;;
26082;SDS011;13848;49.018;12.078;2023-04-25T14:34:13;2.33;;;1.48;;